createdAt,value
2017-12-21T00:01:04.935Z,83.20
2017-12-21T00:03:33.106Z,83.00
2017-12-21T00:06:01.328Z,83.10
2017-12-21T00:08:29.502Z,83.10
2017-12-21T00:10:57.677Z,83.00
2017-12-21T00:13:25.850Z,83.10
2017-12-21T00:15:54.065Z,83.20
2017-12-21T00:18:22.243Z,83.40
2017-12-21T00:20:50.424Z,83.50
2017-12-21T00:23:18.603Z,83.50
2017-12-21T00:25:46.780Z,83.30
2017-12-21T00:28:14.953Z,83.50
2017-12-21T00:30:43.130Z,83.60
2017-12-21T00:33:11.312Z,83.50
2017-12-21T00:35:39.478Z,84.70
2017-12-21T00:38:07.699Z,84.10
2017-12-21T00:40:35.877Z,84.00
2017-12-21T00:43:04.833Z,84.50
2017-12-21T00:45:33.022Z,83.90
2017-12-21T00:48:01.194Z,84.10
2017-12-21T00:50:29.367Z,84.40
2017-12-21T00:52:57.613Z,84.20
2017-12-21T00:55:25.788Z,84.10
2017-12-21T00:57:53.964Z,84.50
2017-12-21T01:00:22.144Z,84.20
2017-12-21T01:02:50.318Z,84.10
2017-12-21T01:05:18.519Z,84.20
2017-12-21T01:07:48.215Z,84.70
2017-12-21T01:10:16.393Z,84.10
2017-12-21T01:12:44.563Z,84.30
2017-12-21T01:15:12.744Z,84.30
2017-12-21T01:17:40.923Z,84.40
2017-12-21T01:20:09.094Z,84.60
2017-12-21T01:22:37.285Z,84.70
2017-12-21T01:25:05.465Z,84.60
2017-12-21T01:27:33.642Z,84.60
2017-12-21T01:30:01.832Z,85.20
2017-12-21T01:32:30.818Z,84.60
2017-12-21T01:34:59.758Z,85.30
2017-12-21T01:37:27.939Z,84.50
2017-12-21T01:39:56.108Z,84.70
2017-12-21T01:42:24.339Z,84.70
2017-12-21T01:44:53.277Z,84.50
2017-12-21T01:47:21.454Z,84.50
2017-12-21T01:49:49.634Z,85.00
2017-12-21T01:52:17.812Z,85.00
2017-12-21T01:54:46.007Z,85.00
2017-12-21T01:57:14.187Z,84.90
2017-12-21T01:59:42.392Z,84.70
2017-12-21T02:02:11.363Z,85.20
2017-12-21T02:04:39.542Z,85.10
2017-12-21T02:07:07.715Z,85.40
2017-12-21T02:09:35.902Z,85.00
2017-12-21T02:12:04.834Z,84.70
2017-12-21T02:14:33.078Z,84.60
2017-12-21T02:17:02.031Z,85.00
2017-12-21T02:19:30.202Z,85.00
2017-12-21T02:21:58.395Z,84.90
2017-12-21T02:24:26.579Z,84.80
2017-12-21T02:26:54.781Z,85.40
2017-12-21T02:29:22.954Z,85.20
2017-12-21T02:31:51.126Z,85.30
2017-12-21T02:34:19.303Z,85.20
2017-12-21T02:36:47.497Z,85.20
2017-12-21T02:39:15.678Z,85.20
2017-12-21T02:41:43.859Z,85.30
2017-12-21T02:44:12.033Z,84.90
2017-12-21T02:46:40.251Z,84.80
2017-12-21T02:49:08.438Z,84.70
2017-12-21T02:51:37.386Z,84.80
2017-12-21T02:54:06.325Z,84.90
2017-12-21T02:56:35.283Z,84.90
2017-12-21T02:59:03.464Z,84.90
2017-12-21T03:01:31.641Z,84.90
2017-12-21T03:03:59.810Z,85.10
2017-12-21T03:06:27.999Z,85.20
2017-12-21T03:08:56.215Z,85.20
2017-12-21T03:11:24.400Z,85.50
2017-12-21T03:13:52.625Z,85.40
2017-12-21T03:16:20.808Z,85.50
2017-12-21T03:18:49.760Z,85.50
2017-12-21T03:21:17.936Z,85.50
2017-12-21T03:23:46.113Z,85.70
2017-12-21T03:26:14.296Z,85.70
2017-12-21T03:28:42.474Z,85.70
2017-12-21T03:31:10.695Z,85.90
2017-12-21T03:33:38.864Z,86.00
2017-12-21T03:36:07.793Z,85.70
2017-12-21T03:38:36.040Z,85.60
2017-12-21T03:41:04.215Z,85.90
2017-12-21T03:43:32.423Z,86.10
2017-12-21T03:46:00.604Z,85.90
2017-12-21T03:48:28.780Z,85.90
2017-12-21T03:50:56.970Z,85.70
2017-12-21T03:53:25.138Z,85.70
2017-12-21T03:55:53.309Z,85.80
2017-12-21T03:58:21.524Z,85.90
2017-12-21T04:00:50.485Z,85.70
2017-12-21T04:03:18.681Z,85.70
2017-12-21T04:05:47.674Z,86.00
2017-12-21T04:08:15.893Z,85.90
2017-12-21T04:10:44.059Z,85.90
2017-12-21T04:13:12.223Z,86.10
2017-12-21T04:15:40.434Z,85.90
2017-12-21T04:18:08.613Z,85.90
2017-12-21T04:20:36.785Z,85.90
2017-12-21T04:23:04.954Z,85.80
2017-12-21T04:25:33.154Z,85.70
2017-12-21T04:28:01.335Z,85.70
2017-12-21T04:30:29.510Z,85.90
2017-12-21T04:32:57.687Z,85.90
2017-12-21T04:35:25.919Z,86.00
2017-12-21T04:37:54.093Z,86.40
2017-12-21T04:40:22.302Z,86.40
2017-12-21T04:42:50.478Z,86.60
2017-12-21T04:45:18.657Z,86.50
2017-12-21T04:47:46.841Z,86.40
2017-12-21T04:50:15.055Z,86.50
2017-12-21T04:52:43.226Z,86.20
2017-12-21T04:55:11.396Z,86.20
2017-12-21T04:57:39.561Z,86.30
2017-12-21T05:00:08.546Z,86.50
2017-12-21T05:02:37.525Z,86.60
2017-12-21T05:05:05.699Z,86.40
2017-12-21T05:07:33.874Z,86.00
2017-12-21T05:10:02.050Z,86.40
2017-12-21T05:12:30.233Z,87.00
2017-12-21T05:14:59.178Z,86.50
2017-12-21T05:17:27.446Z,86.40
2017-12-21T05:19:55.623Z,86.40
2017-12-21T05:22:23.814Z,86.40
2017-12-21T05:24:52.010Z,86.30
2017-12-21T05:27:20.190Z,86.40
2017-12-21T05:29:48.364Z,86.60
2017-12-21T05:32:16.545Z,87.10
2017-12-21T05:34:44.715Z,87.20
2017-12-21T05:37:12.898Z,86.60
2017-12-21T05:39:41.845Z,86.40
2017-12-21T05:42:10.036Z,86.30
2017-12-21T05:44:38.262Z,86.40
2017-12-21T05:47:06.441Z,86.40
2017-12-21T05:49:34.627Z,86.60
2017-12-21T05:52:02.855Z,87.20
2017-12-21T05:54:31.037Z,86.30
2017-12-21T05:56:59.271Z,86.20
2017-12-21T05:59:27.471Z,86.30
2017-12-21T06:01:55.642Z,86.30
2017-12-21T06:04:23.861Z,87.40
2017-12-21T06:06:52.070Z,87.20
2017-12-21T06:09:20.218Z,87.20
2017-12-21T06:11:48.392Z,87.10
2017-12-21T06:14:16.581Z,87.10
2017-12-21T06:16:44.753Z,87.30
2017-12-21T06:19:12.914Z,87.90
2017-12-21T06:21:41.135Z,86.90
2017-12-21T06:24:09.335Z,86.90
2017-12-21T06:26:37.520Z,87.30
2017-12-21T06:29:06.514Z,87.40
2017-12-21T06:31:35.473Z,87.10
2017-12-21T06:34:03.725Z,87.10
2017-12-21T06:36:31.978Z,87.10
2017-12-21T06:39:00.218Z,86.90
2017-12-21T06:41:28.399Z,86.80
2017-12-21T06:43:56.581Z,86.60
2017-12-21T06:46:25.538Z,86.60
2017-12-21T06:48:53.762Z,86.50
2017-12-21T06:51:22.738Z,86.40
2017-12-21T06:53:51.714Z,86.30
2017-12-21T06:56:20.837Z,86.30
2017-12-21T06:58:49.837Z,86.20
2017-12-21T07:01:18.872Z,86.20
2017-12-21T07:03:47.087Z,86.20
2017-12-21T07:06:15.273Z,86.40
2017-12-21T07:08:44.215Z,86.30
2017-12-21T07:11:12.422Z,86.30
2017-12-21T07:13:40.607Z,86.40
2017-12-21T07:16:09.548Z,86.30
2017-12-21T07:18:37.747Z,86.20
2017-12-21T07:21:05.944Z,86.00
2017-12-21T07:23:34.118Z,86.20
2017-12-21T07:26:02.299Z,86.00
2017-12-21T07:28:31.316Z,85.30
2017-12-21T07:30:59.538Z,85.20
2017-12-21T07:33:27.725Z,85.30
2017-12-21T07:35:55.906Z,84.90
2017-12-21T07:38:24.123Z,84.70
2017-12-21T07:40:52.302Z,84.50
2017-12-21T07:43:20.951Z,84.50
2017-12-21T07:45:49.142Z,84.40
2017-12-21T07:48:18.135Z,83.90
2017-12-21T07:50:47.103Z,83.80
2017-12-21T07:53:15.298Z,83.80
2017-12-21T07:55:44.238Z,82.80
2017-12-21T07:58:12.414Z,82.70
2017-12-21T08:00:40.619Z,82.70
2017-12-21T08:03:08.801Z,82.80
2017-12-21T08:05:36.977Z,82.90
2017-12-21T08:08:05.206Z,82.90
2017-12-21T08:10:33.382Z,83.20
2017-12-21T08:13:01.574Z,83.40
2017-12-21T08:15:29.756Z,83.20
2017-12-21T08:17:57.933Z,82.90
2017-12-21T08:20:26.166Z,82.80
2017-12-21T08:22:54.370Z,83.00
2017-12-21T08:25:22.544Z,82.90
2017-12-21T08:27:50.802Z,82.90
2017-12-21T08:30:19.041Z,82.20
2017-12-21T08:32:48.029Z,81.60
2017-12-21T08:35:17.002Z,80.30
2017-12-21T08:37:45.218Z,80.20
2017-12-21T08:40:13.449Z,79.80
2017-12-21T08:42:41.662Z,79.20
2017-12-21T08:45:09.849Z,79.10
2017-12-21T08:47:38.136Z,78.70
2017-12-21T08:50:07.065Z,79.50
2017-12-21T08:52:35.265Z,79.50
2017-12-21T08:55:04.220Z,80.10
2017-12-21T08:57:32.424Z,79.30
2017-12-21T09:00:00.612Z,79.30
2017-12-21T09:02:29.599Z,80.20
2017-12-21T09:04:58.557Z,80.20
2017-12-21T09:07:26.741Z,80.10
2017-12-21T09:09:54.948Z,80.10
2017-12-21T09:12:23.182Z,80.30
2017-12-21T09:14:51.417Z,80.30
2017-12-21T09:17:19.613Z,80.60
2017-12-21T09:19:47.848Z,80.30
2017-12-21T09:22:16.791Z,82.10
2017-12-21T09:24:44.964Z,82.00
2017-12-21T09:27:13.197Z,82.10
2017-12-21T09:29:41.355Z,80.10
2017-12-21T09:32:09.531Z,77.30
2017-12-21T09:34:37.749Z,76.50
2017-12-21T09:37:05.939Z,75.80
2017-12-21T09:39:34.114Z,74.90
2017-12-21T09:42:02.286Z,73.90
2017-12-21T09:44:30.466Z,73.60
2017-12-21T09:46:58.643Z,72.90
2017-12-21T09:49:26.844Z,72.40
2017-12-21T09:51:55.049Z,71.70
2017-12-21T09:54:23.981Z,71.10
2017-12-21T09:56:52.167Z,71.10
2017-12-21T09:59:20.341Z,71.30
2017-12-21T10:01:48.546Z,71.00
2017-12-21T10:04:16.880Z,69.80
2017-12-21T10:06:45.051Z,69.30
2017-12-21T10:09:13.220Z,68.40
2017-12-21T10:11:41.446Z,67.10
2017-12-21T10:14:09.615Z,66.70
2017-12-21T10:16:37.800Z,65.40
2017-12-21T10:19:05.970Z,64.10
2017-12-21T10:21:34.205Z,63.00
2017-12-21T10:24:02.390Z,61.50
2017-12-21T10:26:30.597Z,60.50
2017-12-21T10:28:58.804Z,59.20
2017-12-21T10:31:26.966Z,57.50
2017-12-21T10:33:55.896Z,52.90
2017-12-21T10:36:24.055Z,52.80
2017-12-21T10:38:52.217Z,51.50
2017-12-21T10:41:21.147Z,37.60
2017-12-21T10:43:49.414Z,37.30
2017-12-21T10:46:17.609Z,30.50
2017-12-21T10:48:45.779Z,28.60
2017-12-21T10:51:13.958Z,30.00
2017-12-21T10:53:42.136Z,32.60
2017-12-21T10:56:10.308Z,35.00
2017-12-21T10:58:38.488Z,38.00
2017-12-21T11:01:06.647Z,41.00
2017-12-21T11:03:34.836Z,43.70
2017-12-21T11:06:02.994Z,45.90
2017-12-21T11:08:31.152Z,48.00
2017-12-21T11:10:59.374Z,48.70
2017-12-21T11:13:27.535Z,49.40
2017-12-21T11:15:55.694Z,49.50
2017-12-21T11:18:23.866Z,49.40
2017-12-21T11:20:52.054Z,47.70
2017-12-21T11:23:20.305Z,47.10
2017-12-21T11:25:48.470Z,47.10
2017-12-21T11:28:16.734Z,46.50
2017-12-21T11:30:44.895Z,46.00
2017-12-21T11:33:13.822Z,46.90
2017-12-21T11:35:41.978Z,46.90
2017-12-21T11:38:10.146Z,48.20
2017-12-21T11:40:39.072Z,49.90
2017-12-21T11:43:07.234Z,49.90
2017-12-21T11:45:35.392Z,50.80
2017-12-21T11:48:03.574Z,51.50
2017-12-21T11:50:31.792Z,51.50
2017-12-21T11:52:59.965Z,51.80
2017-12-21T11:55:28.123Z,50.00
2017-12-21T11:57:56.312Z,48.20
2017-12-21T12:00:24.470Z,47.60
2017-12-21T12:02:52.641Z,47.70
2017-12-21T12:05:20.880Z,47.60
2017-12-21T12:07:49.820Z,40.80
2017-12-21T12:10:17.994Z,40.10
2017-12-21T12:12:46.163Z,39.70
2017-12-21T12:15:14.346Z,38.30
2017-12-21T12:17:42.515Z,38.30
2017-12-21T12:20:10.710Z,34.50
2017-12-21T12:22:38.880Z,33.60
2017-12-21T12:25:07.058Z,31.20
2017-12-21T12:27:35.229Z,30.30
2017-12-21T12:30:03.390Z,33.10
2017-12-21T12:32:31.596Z,36.20
2017-12-21T12:34:59.768Z,38.20
2017-12-21T12:37:27.959Z,41.10
2017-12-21T12:39:56.897Z,44.50
2017-12-21T12:42:25.057Z,44.30
2017-12-21T12:44:53.216Z,45.70
2017-12-21T12:47:21.387Z,46.60
2017-12-21T12:49:50.315Z,48.10
2017-12-21T12:52:18.528Z,48.00
2017-12-21T12:54:46.698Z,48.60
2017-12-21T12:57:14.855Z,48.70
2017-12-21T12:59:43.067Z,48.50
2017-12-21T13:02:11.995Z,44.20
2017-12-21T13:04:40.171Z,44.10
2017-12-21T13:07:08.361Z,41.90
2017-12-21T13:09:36.532Z,38.10
2017-12-21T13:12:04.715Z,36.80
2017-12-21T13:14:32.889Z,37.60
2017-12-21T13:17:01.079Z,38.60
2017-12-21T13:19:29.246Z,39.30
2017-12-21T13:21:57.425Z,40.70
2017-12-21T13:24:25.642Z,41.90
2017-12-21T13:26:54.604Z,40.70
2017-12-21T13:29:22.771Z,40.70
2017-12-21T13:31:50.946Z,42.70
2017-12-21T13:34:19.115Z,44.10
2017-12-21T13:36:47.279Z,45.80
2017-12-21T13:39:15.495Z,47.70
2017-12-21T13:41:44.442Z,50.90
2017-12-21T13:44:12.619Z,50.80
2017-12-21T13:46:40.860Z,51.80
2017-12-21T13:49:09.039Z,53.70
2017-12-21T13:51:37.220Z,53.60
2017-12-21T13:54:05.447Z,54.30
2017-12-21T13:56:33.633Z,55.20
2017-12-21T13:59:02.581Z,57.20
2017-12-21T14:01:30.826Z,57.20
2017-12-21T14:03:59.019Z,57.70
2017-12-21T14:06:27.188Z,58.10
2017-12-21T14:08:55.392Z,59.10
2017-12-21T14:11:23.583Z,59.20
2017-12-21T14:13:51.760Z,60.50
2017-12-21T14:16:19.931Z,60.00
2017-12-21T14:18:48.172Z,60.40
2017-12-21T14:21:16.362Z,61.40
2017-12-21T14:23:44.547Z,61.00
2017-12-21T14:26:12.766Z,61.40
2017-12-21T14:28:41.706Z,62.40
2017-12-21T14:31:09.886Z,61.50
2017-12-21T14:33:38.055Z,61.10
2017-12-21T14:36:06.244Z,61.10
2017-12-21T14:38:34.458Z,61.40
2017-12-21T14:41:03.389Z,61.80
2017-12-21T14:43:31.578Z,61.60
2017-12-21T14:45:59.787Z,61.90
2017-12-21T14:48:28.728Z,62.20
2017-12-21T14:50:56.927Z,62.10
2017-12-21T14:53:25.109Z,63.60
2017-12-21T14:55:53.306Z,62.70
2017-12-21T14:58:22.267Z,62.70
2017-12-21T15:00:50.436Z,62.70
2017-12-21T15:03:18.598Z,63.00
2017-12-21T15:05:46.765Z,63.30
2017-12-21T15:08:14.945Z,63.60
2017-12-21T15:10:43.121Z,63.80
2017-12-21T15:13:11.337Z,63.90
2017-12-21T15:15:39.510Z,64.20
2017-12-21T15:18:07.782Z,64.40
2017-12-21T15:20:35.969Z,65.00
2017-12-21T15:23:04.914Z,66.00
2017-12-21T15:25:33.101Z,65.90
2017-12-21T15:28:01.285Z,66.90
2017-12-21T15:30:29.457Z,67.30
2017-12-21T15:32:57.642Z,67.60
2017-12-21T15:35:25.818Z,68.30
2017-12-21T15:37:54.058Z,69.00
2017-12-21T15:40:22.254Z,69.30
2017-12-21T15:42:50.439Z,69.70
2017-12-21T15:45:18.624Z,69.90
2017-12-21T15:47:46.826Z,70.40
2017-12-21T15:50:15.003Z,70.60
2017-12-21T15:52:43.223Z,70.90
2017-12-21T15:55:11.431Z,71.00
2017-12-21T15:57:39.616Z,71.40
2017-12-21T16:00:08.582Z,71.70
2017-12-21T16:02:36.794Z,71.60
2017-12-21T16:05:05.765Z,72.10
2017-12-21T16:07:34.709Z,72.30
2017-12-21T16:10:02.913Z,72.20
2017-12-21T16:12:31.077Z,72.30
2017-12-21T16:14:59.285Z,72.30
2017-12-21T16:17:27.506Z,72.40
2017-12-21T16:19:55.684Z,72.70
2017-12-21T16:22:23.931Z,72.70
2017-12-21T16:24:52.136Z,72.70
2017-12-21T16:27:20.319Z,72.80
2017-12-21T16:29:48.507Z,72.80
2017-12-21T16:32:16.676Z,72.80
2017-12-21T16:34:44.875Z,72.70
2017-12-21T16:37:13.046Z,72.60
2017-12-21T16:39:41.226Z,72.50
2017-12-21T16:42:09.403Z,72.60
2017-12-21T16:44:37.603Z,72.50
2017-12-21T16:47:06.580Z,72.40
2017-12-21T16:49:35.581Z,72.40
2017-12-21T16:52:04.524Z,73.00
2017-12-21T16:54:32.697Z,73.00
2017-12-21T16:57:00.877Z,72.50
2017-12-21T16:59:29.112Z,72.50
2017-12-21T17:01:57.344Z,72.50
2017-12-21T17:04:25.549Z,73.00
2017-12-21T17:06:53.760Z,72.50
2017-12-21T17:09:21.930Z,72.50
2017-12-21T17:11:50.109Z,71.40
2017-12-21T17:14:18.302Z,71.80
2017-12-21T17:16:46.493Z,72.20
2017-12-21T17:19:14.678Z,72.30
2017-12-21T17:21:42.846Z,71.80
2017-12-21T17:24:11.068Z,72.00
2017-12-21T17:26:39.259Z,72.00
2017-12-21T17:29:07.483Z,72.10
2017-12-21T17:31:35.674Z,71.60
2017-12-21T17:34:04.618Z,71.50
2017-12-21T17:36:32.883Z,71.40
2017-12-21T17:39:01.043Z,71.50
2017-12-21T17:41:29.233Z,71.30
2017-12-21T17:43:57.417Z,71.20
2017-12-21T17:46:25.588Z,71.20
2017-12-21T17:48:53.755Z,71.10
2017-12-21T17:51:21.920Z,71.10
2017-12-21T17:53:50.090Z,71.60
2017-12-21T17:56:18.255Z,71.90
2017-12-21T17:58:46.433Z,71.80
2017-12-21T18:01:14.594Z,72.00
2017-12-21T18:03:43.550Z,72.80
2017-12-21T18:06:11.726Z,72.80
2017-12-21T18:08:39.896Z,72.90
2017-12-21T18:11:08.063Z,72.80
2017-12-21T18:13:36.239Z,72.70
2017-12-21T18:16:04.411Z,72.60
2017-12-21T18:18:32.575Z,72.70
2017-12-21T18:21:01.723Z,73.10
2017-12-21T18:23:30.669Z,73.30
2017-12-21T18:25:58.847Z,73.20
2017-12-21T18:28:27.026Z,73.50
2017-12-21T18:30:55.194Z,73.70
2017-12-21T18:33:23.364Z,73.80
2017-12-21T18:35:52.298Z,73.80
2017-12-21T18:38:21.242Z,73.70
2017-12-21T18:40:49.436Z,73.70
2017-12-21T18:43:17.707Z,73.80
2017-12-21T18:45:45.961Z,73.80
2017-12-21T18:48:14.163Z,73.80
2017-12-21T18:50:42.412Z,74.60
2017-12-21T18:53:10.584Z,73.90
2017-12-21T18:55:38.767Z,73.90
2017-12-21T18:58:07.139Z,74.20
2017-12-21T19:00:35.522Z,74.80
2017-12-21T19:03:03.758Z,75.40
2017-12-21T19:05:32.705Z,75.90
2017-12-21T19:08:00.902Z,75.80
2017-12-21T19:10:29.081Z,75.20
2017-12-21T19:12:57.403Z,74.70
2017-12-21T19:15:25.575Z,75.80
2017-12-21T19:17:53.740Z,76.30
2017-12-21T19:20:22.761Z,76.50
2017-12-21T19:22:51.040Z,76.40
2017-12-21T19:25:19.238Z,77.50
2017-12-21T19:27:47.466Z,77.00
2017-12-21T19:30:15.640Z,77.20
2017-12-21T19:32:43.820Z,77.40
2017-12-21T19:35:11.991Z,77.60
2017-12-21T19:37:40.143Z,77.60
2017-12-21T19:40:09.095Z,77.60
2017-12-21T19:42:37.262Z,77.50
2017-12-21T19:45:05.437Z,77.50
2017-12-21T19:47:33.619Z,77.80
2017-12-21T19:50:01.791Z,78.00
2017-12-21T19:52:29.967Z,78.50
2017-12-21T19:54:58.140Z,79.00
2017-12-21T19:57:26.403Z,79.10
2017-12-21T19:59:54.570Z,79.00
2017-12-21T20:02:22.794Z,79.30
2017-12-21T20:04:50.960Z,79.40
2017-12-21T20:07:19.142Z,79.50
2017-12-21T20:09:47.306Z,79.50
2017-12-21T20:12:15.470Z,79.30
2017-12-21T20:14:43.668Z,79.30
2017-12-21T20:17:11.843Z,79.40
2017-12-21T20:19:40.015Z,79.30
2017-12-21T20:22:08.179Z,79.50
2017-12-21T20:24:36.495Z,79.50
2017-12-21T20:27:05.426Z,80.00
2017-12-21T20:29:33.639Z,79.90
2017-12-21T20:32:01.815Z,80.60
2017-12-21T20:34:29.992Z,81.30
2017-12-21T20:36:58.171Z,81.20
2017-12-21T20:39:27.122Z,80.50
2017-12-21T20:41:55.296Z,80.50
2017-12-21T20:44:23.472Z,80.00
2017-12-21T20:46:51.940Z,80.00
2017-12-21T20:49:20.108Z,79.80
2017-12-21T20:51:48.320Z,79.70
2017-12-21T20:54:16.485Z,79.90
2017-12-21T20:56:44.650Z,80.00
2017-12-21T20:59:12.866Z,79.60
2017-12-21T21:01:41.034Z,79.10
2017-12-21T21:04:09.211Z,78.90
2017-12-21T21:06:37.378Z,78.40
2017-12-21T21:09:05.558Z,78.60
2017-12-21T21:11:33.784Z,78.80
2017-12-21T21:14:02.002Z,79.70
2017-12-21T21:16:30.149Z,79.00
2017-12-21T21:18:58.342Z,79.00
2017-12-21T21:21:26.506Z,78.20
2017-12-21T21:23:54.694Z,77.80
2017-12-21T21:26:22.876Z,77.60
2017-12-21T21:28:51.090Z,77.50
2017-12-21T21:31:19.291Z,77.60
2017-12-21T21:33:47.558Z,77.50
2017-12-21T21:36:15.730Z,77.30
2017-12-21T21:38:43.897Z,77.10
2017-12-21T21:41:12.067Z,77.20
2017-12-21T21:43:40.239Z,77.20
2017-12-21T21:46:08.411Z,77.40
2017-12-21T21:48:36.618Z,77.80
2017-12-21T21:51:04.791Z,77.90
2017-12-21T21:53:32.976Z,77.90
2017-12-21T21:56:01.228Z,77.90
2017-12-21T21:58:29.464Z,78.20
2017-12-21T22:00:58.393Z,78.30
2017-12-21T22:03:26.561Z,78.10
2017-12-21T22:05:54.739Z,78.50
2017-12-21T22:08:22.926Z,78.40
2017-12-21T22:10:51.115Z,78.30
2017-12-21T22:13:19.294Z,78.40
2017-12-21T22:15:47.512Z,78.60
2017-12-21T22:18:16.454Z,78.40
2017-12-21T22:20:44.618Z,78.30
2017-12-21T22:23:12.778Z,78.50
2017-12-21T22:25:41.074Z,78.60
2017-12-21T22:28:09.379Z,78.70
2017-12-21T22:30:37.542Z,78.80
2017-12-21T22:33:06.479Z,79.30
2017-12-21T22:35:35.416Z,79.40
2017-12-21T22:38:03.591Z,79.30
2017-12-21T22:40:31.803Z,79.50
2017-12-21T22:43:00.043Z,79.90
2017-12-21T22:45:28.311Z,79.70
2017-12-21T22:47:56.487Z,79.80
2017-12-21T22:50:24.652Z,80.00
2017-12-21T22:52:52.818Z,80.40
2017-12-21T22:55:20.987Z,80.30
2017-12-21T22:57:49.181Z,80.60
2017-12-21T23:00:25.341Z,80.80
2017-12-21T23:02:53.528Z,81.80
2017-12-21T23:05:21.695Z,82.30
2017-12-21T23:07:49.854Z,81.70
2017-12-21T23:10:18.021Z,81.50
2017-12-21T23:12:46.186Z,81.60
2017-12-21T23:15:15.208Z,82.70
2017-12-21T23:17:43.362Z,82.50
2017-12-21T23:20:11.541Z,82.50
2017-12-21T23:22:39.703Z,83.20
2017-12-21T23:25:08.647Z,83.00
2017-12-21T23:27:36.814Z,83.00
2017-12-21T23:30:05.026Z,83.20
2017-12-21T23:32:33.198Z,83.00
2017-12-21T23:35:01.369Z,82.80
2017-12-21T23:37:29.532Z,82.50
2017-12-21T23:39:57.703Z,82.40
2017-12-21T23:42:25.892Z,82.20
2017-12-21T23:44:54.068Z,82.50
2017-12-21T23:47:22.235Z,82.20
2017-12-21T23:49:50.394Z,82.00
2017-12-21T23:52:18.559Z,82.00
2017-12-21T23:54:46.732Z,81.80
2017-12-21T23:57:14.904Z,82.30
2017-12-21T23:59:43.058Z,82.50
